createdAt,value
2023-02-17T00:03:44.694Z,3.65786
2023-02-17T00:08:46.357Z,3.59149
2023-02-17T00:13:48.002Z,2.84106
2023-02-17T00:18:49.631Z,2.39551
2023-02-17T00:23:51.284Z,2.73054
2023-02-17T00:28:53.056Z,2.30627
2023-02-17T00:33:54.748Z,2.41297
2023-02-17T00:38:56.658Z,2.81597
2023-02-17T00:43:58.449Z,3.21707
2023-02-17T00:49:00.279Z,2.9538
2023-02-17T00:54:01.983Z,2.46728
2023-02-17T00:59:03.806Z,2.79533
2023-02-17T01:04:05.441Z,2.47553
2023-02-17T01:09:07.081Z,1.94011
2023-02-17T01:14:08.767Z,1.61302
2023-02-17T01:19:10.691Z,2.06968
2023-02-17T01:24:12.402Z,1.96901
2023-02-17T01:29:14.217Z,1.45899
2023-02-17T01:34:16.845Z,2.22021
2023-02-17T01:39:18.474Z,1.28211
2023-02-17T01:44:20.179Z,1.19795
2023-02-17T01:49:21.803Z,1.53331
2023-02-17T01:54:23.508Z,1.37738
2023-02-17T01:59:25.216Z,0.49614
2023-02-17T02:04:26.860Z,1.009
2023-02-17T02:09:28.768Z,1.90264
2023-02-17T02:14:30.447Z,2.13986
2023-02-17T02:19:32.036Z,1.7645
2023-02-17T02:24:33.655Z,1.42692
2023-02-17T02:29:35.286Z,1.0668
2023-02-17T02:34:36.955Z,0.95089
2023-02-17T02:39:38.554Z,1.51933
2023-02-17T02:44:40.323Z,0.64825
2023-02-17T02:49:41.909Z,1.29195
2023-02-17T02:54:43.642Z,1.21002
2023-02-17T02:59:45.284Z,0.62253
2023-02-17T03:04:46.917Z,0.90548
2023-02-17T03:09:48.558Z,1.25829
2023-02-17T03:14:50.180Z,1.5006
2023-02-17T03:19:51.916Z,1.29577
2023-02-17T03:24:53.647Z,1.31069
2023-02-17T03:29:55.333Z,1.04203
2023-02-17T03:34:57.000Z,0.92326
2023-02-17T03:39:58.844Z,1.32371
2023-02-17T03:45:00.821Z,1.00996
2023-02-17T03:50:02.407Z,1.21891
2023-02-17T03:55:04.031Z,1.25226
2023-02-17T04:00:05.674Z,0.35577
2023-02-17T04:05:07.445Z,0.30464
2023-02-17T04:10:09.687Z,0.89531
2023-02-17T04:15:11.431Z,0.14364
2023-02-17T04:20:13.074Z,0.99439
2023-02-17T04:25:14.803Z,0.91691
2023-02-17T04:30:16.487Z,0.72351
2023-02-17T04:35:18.191Z,0.75622
2023-02-17T04:40:19.781Z,0.75527
2023-02-17T04:45:21.419Z,0.94073
2023-02-17T04:50:23.057Z,0.82958
2023-02-17T04:55:24.748Z,0.48089
2023-02-17T05:00:26.387Z,0.58791
2023-02-17T05:05:27.945Z,-0.72902
2023-02-17T05:10:29.562Z,-0.24696
2023-02-17T05:15:33.136Z,-0.59437
2023-02-17T05:20:36.644Z,-0.41082
2023-02-17T05:25:38.316Z,0.24272
2023-02-17T05:30:39.966Z,0.73494
2023-02-17T05:35:41.788Z,0.21763
2023-02-17T05:40:43.420Z,-0.21266
2023-02-17T05:45:45.250Z,-0.51308
2023-02-17T05:50:46.928Z,-1.33016
2023-02-17T05:55:48.892Z,-0.67472
2023-02-17T06:00:50.593Z,0.23288
2023-02-17T06:05:52.340Z,0.18016
2023-02-17T06:10:53.978Z,0.22049
2023-02-17T06:15:55.601Z,-0.0288
2023-02-17T06:20:57.260Z,-0.37113
2023-02-17T06:25:58.919Z,0.23002
2023-02-17T06:31:00.580Z,0.48851
2023-02-17T06:36:02.285Z,0.45041
2023-02-17T06:41:04.004Z,0.58474
2023-02-17T06:46:06.014Z,-0.4629
2023-02-17T06:51:07.854Z,-0.62518
2023-02-17T06:56:09.574Z,0.05599
2023-02-17T07:01:11.269Z,0.21573
2023-02-17T07:06:12.960Z,0.47295
2023-02-17T07:11:14.620Z,-0.03102
2023-02-17T07:16:16.368Z,-0.13486
2023-02-17T07:21:18.040Z,-0.98084
2023-02-17T07:26:19.646Z,-0.35239
2023-02-17T07:31:21.564Z,0.05218
2023-02-17T07:36:23.333Z,0.17889
2023-02-17T07:41:24.901Z,-0.41305
2023-02-17T07:46:26.552Z,-0.37653
2023-02-17T07:51:28.193Z,-0.22505
2023-02-17T07:56:29.836Z,-0.36382
2023-02-17T08:01:31.510Z,-0.03197
2023-02-17T08:06:33.096Z,0.02678
2023-02-17T08:11:34.723Z,0.08521
2023-02-17T08:16:36.407Z,0.42976
2023-02-17T08:21:38.148Z,-0.02594
2023-02-17T08:26:39.820Z,0.05282
2023-02-17T08:31:41.673Z,0.53361
2023-02-17T08:36:43.393Z,0.57013
2023-02-17T08:41:45.004Z,0.5768
2023-02-17T08:46:46.731Z,0.41738
2023-02-17T08:51:48.389Z,0.07759
2023-02-17T08:56:50.079Z,0.01693
2023-02-17T09:01:51.874Z,0.46565
2023-02-17T09:06:53.588Z,-0.33143
2023-02-17T09:11:55.325Z,0.25669
2023-02-17T09:16:57.163Z,0.4558
2023-02-17T09:21:58.808Z,0.06806
2023-02-17T09:27:00.505Z,-0.41305
2023-02-17T09:32:02.523Z,-0.65915
2023-02-17T09:37:04.260Z,-0.22759
2023-02-17T09:42:06.060Z,-0.60104
2023-02-17T09:47:07.768Z,-0.179
2023-02-17T09:52:09.453Z,-0.41368
2023-02-17T09:57:11.142Z,-0.59533
2023-02-17T10:02:12.825Z,-0.72965
2023-02-17T10:07:14.489Z,-0.38796
2023-02-17T10:12:16.154Z,-0.14661
2023-02-17T10:17:17.910Z,-0.07135
2023-02-17T10:22:19.823Z,-0.02054
2023-02-17T10:27:21.592Z,-0.07071
2023-02-17T10:32:23.515Z,-0.32064
2023-02-17T10:37:25.187Z,-0.29904
2023-02-17T10:42:26.747Z,-0.25966
2023-02-17T10:47:28.442Z,-0.18091
2023-02-17T10:52:30.156Z,-0.45052
2023-02-17T10:57:31.768Z,-0.32
2023-02-17T11:02:33.495Z,0.09791
2023-02-17T11:07:35.149Z,-0.53118
2023-02-17T11:12:36.794Z,-1.18344
2023-02-17T11:17:38.455Z,-0.32572
2023-02-17T11:22:40.120Z,-0.05992
2023-02-17T11:27:41.746Z,-0.21203
2023-02-17T11:32:43.393Z,-1.22346
2023-02-17T11:37:45.006Z,-0.8951
2023-02-17T11:42:46.604Z,-1.01165
2023-02-17T11:47:48.366Z,-0.03197
2023-02-17T11:52:50.010Z,-0.01546
2023-02-17T11:57:51.632Z,-0.30063
2023-02-17T12:02:53.254Z,0.06076
2023-02-17T12:07:54.850Z,-0.27808
2023-02-17T12:12:56.543Z,-0.34668
2023-02-17T12:17:58.148Z,0.1303
2023-02-17T12:22:59.822Z,0.38054
2023-02-17T12:28:01.477Z,0.30941
2023-02-17T12:33:03.153Z,-0.42638
2023-02-17T12:38:04.793Z,-0.13931
2023-02-17T12:43:06.472Z,-0.21298
2023-02-17T12:48:08.121Z,-0.12946
2023-02-17T12:53:09.725Z,-0.11454
2023-02-17T12:58:11.340Z,-0.33588
2023-02-17T13:03:13.033Z,-0.19933
2023-02-17T13:08:14.708Z,-0.31047
2023-02-17T13:13:16.389Z,-0.31968
2023-02-17T13:18:18.131Z,-0.8697
2023-02-17T13:23:19.762Z,-1.03292
2023-02-17T13:28:21.408Z,-0.95607
2023-02-17T13:33:23.060Z,-0.29904
2023-02-17T13:38:24.707Z,-0.13708
2023-02-17T13:43:26.398Z,-0.16344
2023-02-17T13:48:28.021Z,-0.52514
2023-02-17T13:53:29.628Z,-0.11898
2023-02-17T13:58:31.220Z,-0.71886
2023-02-17T14:03:32.795Z,-0.07389
2023-02-17T14:08:34.427Z,-0.52006
2023-02-17T14:13:35.996Z,-0.28443
2023-02-17T14:18:37.599Z,-1.2495
2023-02-17T14:23:39.399Z,-0.72584
2023-02-17T14:28:41.042Z,-1.2514
2023-02-17T14:33:42.612Z,-0.38859
2023-02-17T14:38:44.265Z,-0.91288
2023-02-17T14:43:45.861Z,-0.48863
2023-02-17T14:48:47.475Z,-0.96401
2023-02-17T14:53:49.084Z,-1.12819
2023-02-17T14:58:50.687Z,-0.88049
2023-02-17T15:03:52.360Z,-0.22727
2023-02-17T15:08:54.036Z,-0.4032
2023-02-17T15:13:55.768Z,-1.58484
2023-02-17T15:18:57.393Z,-1.45496
2023-02-17T15:23:59.123Z,-0.93797
2023-02-17T15:29:00.704Z,-0.48259
2023-02-17T15:34:02.341Z,-0.24156
2023-02-17T15:39:03.910Z,-0.02435
2023-02-17T15:44:06.335Z,-0.93892
2023-02-17T15:49:09.100Z,-1.02848
2023-02-17T15:54:10.796Z,-0.28888
2023-02-17T15:59:12.337Z,0.08172
2023-02-17T16:04:14.287Z,0.40563
2023-02-17T16:09:15.919Z,0.24971
2023-02-17T16:14:19.313Z,0.60061
2023-02-17T16:19:20.996Z,0.52853
2023-02-17T16:24:22.670Z,0.81211
2023-02-17T16:29:24.291Z,0.83656
2023-02-17T16:34:25.977Z,0.93977
2023-02-17T16:39:27.637Z,1.244
2023-02-17T16:44:29.440Z,0.98741
2023-02-17T16:49:31.012Z,1.4736
2023-02-17T16:54:35.395Z,1.71114
2023-02-17T16:59:37.368Z,2.05983
2023-02-17T17:04:39.001Z,2.05475
2023-02-17T17:09:40.971Z,2.09508
2023-02-17T17:14:43.503Z,2.24371
2023-02-17T17:19:45.131Z,1.75211
2023-02-17T17:24:46.752Z,1.74893
2023-02-17T17:29:48.409Z,1.71559
2023-02-17T17:34:50.340Z,1.49297
2023-02-17T17:39:51.989Z,1.5622
2023-02-17T17:44:53.616Z,1.74004
2023-02-17T17:49:55.276Z,2.02141
2023-02-17T17:54:56.909Z,2.75944
2023-02-17T17:59:58.520Z,3.2339
2023-02-17T18:05:00.324Z,2.5851
2023-02-17T18:10:02.093Z,3.02938
2023-02-17T18:15:03.720Z,3.08845
2023-02-17T18:20:05.393Z,3.89287
2023-02-17T18:25:06.979Z,4.34128
2023-02-17T18:30:08.666Z,4.67633
2023-02-17T18:35:10.316Z,4.15995
2023-02-17T18:40:11.948Z,4.78939
2023-02-17T18:45:13.590Z,4.6884
2023-02-17T18:50:15.236Z,5.12158
2023-02-17T18:55:16.957Z,4.07738
2023-02-17T19:00:18.592Z,3.65754
2023-02-17T19:05:20.349Z,4.36383
2023-02-17T19:10:21.953Z,5.16477
2023-02-17T19:15:23.623Z,5.1473
2023-02-17T19:20:25.517Z,4.81003
2023-02-17T19:25:27.151Z,4.70237
2023-02-17T19:30:29.036Z,5.11491
2023-02-17T19:35:30.782Z,3.70581
2023-02-17T19:40:32.405Z,3.57688
2023-02-17T19:45:34.072Z,3.41333
2023-02-17T19:50:35.779Z,3.67914
2023-02-17T19:55:37.454Z,3.90843
2023-02-17T20:00:39.131Z,3.3965
2023-02-17T20:05:40.791Z,3.06463
2023-02-17T20:10:42.420Z,3.77568
2023-02-17T20:15:44.143Z,3.01128
2023-02-17T20:20:45.844Z,2.83852
2023-02-17T20:25:47.454Z,3.23993
2023-02-17T20:30:49.141Z,3.81601
2023-02-17T20:35:50.774Z,2.97952
2023-02-17T20:40:52.426Z,3.58037
2023-02-17T20:45:54.304Z,4.00815
2023-02-17T20:50:55.983Z,4.12216
2023-02-17T20:55:57.857Z,4.38543
2023-02-17T21:00:59.534Z,4.37463
2023-02-17T21:06:01.231Z,4.01005
2023-02-17T21:11:02.945Z,3.41682
2023-02-17T21:16:04.666Z,3.95289
2023-02-17T21:21:06.291Z,3.78679
2023-02-17T21:26:08.413Z,3.45556
2023-02-17T21:31:10.483Z,3.2158
2023-02-17T21:36:12.177Z,3.52289
2023-02-17T21:41:13.851Z,3.90525
2023-02-17T21:46:15.579Z,3.99957
2023-02-17T21:51:17.270Z,4.80463
2023-02-17T21:56:18.899Z,5.44138
2023-02-17T22:01:20.634Z,5.26385
2023-02-17T22:06:22.339Z,4.20346
2023-02-17T22:11:24.046Z,4.26062
2023-02-17T22:16:25.750Z,4.16852
2023-02-17T22:21:27.415Z,4.49404
2023-02-17T22:26:29.077Z,5.35309
2023-02-17T22:31:30.902Z,4.97041
2023-02-17T22:36:32.643Z,4.66077
2023-02-17T22:41:34.309Z,4.6379
2023-02-17T22:46:35.986Z,4.27523
2023-02-17T22:51:37.661Z,4.21679
2023-02-17T22:56:39.336Z,4.45402
2023-02-17T23:01:41.084Z,4.34033
2023-02-17T23:06:42.899Z,4.54104
2023-02-17T23:11:44.553Z,4.17519
2023-02-17T23:16:46.206Z,4.34224
2023-02-17T23:21:48.110Z,4.01386
2023-02-17T23:26:49.805Z,3.6496
2023-02-17T23:31:51.505Z,3.79283
2023-02-17T23:36:53.220Z,3.78267
2023-02-17T23:41:54.997Z,3.76393
2023-02-17T23:46:57.028Z,3.79219
2023-02-17T23:51:58.607Z,3.68422
2023-02-17T23:57:00.218Z,4.05737
